DEPPU EDXH-EDXH
Flight info
| Callsign | DEPPU |
|---|---|
| Flight time | 0h 1m |
| Altitude | 9500 |
| Route | VFR |
| Aircraft | BE36/L-S/S |
Departure
| Time | 2026-04-30 14:53 |
|---|---|
| Airport | Helgoland-Düne Airport (EDXH) |
Arrival
| Time | 2026-04-30 14:55 |
|---|---|
| Airport | Helgoland-Düne Airport (EDXH) |
| Time | Latitude | Longitude | Altitude | Speed | Heading |
|---|---|---|---|---|---|
| 2026-04-30 14:48 | 54.18765 | 7.91618 | 4 ft | 0 kts | 144° |
| 2026-04-30 14:51 | 54.18692 | 7.91625 | 1 ft | 14 kts | 206° |
| 2026-04-30 14:51 | 54.18557 | 7.91516 | 4 ft | 29 kts | 210° |
| 2026-04-30 14:51 | 54.18441 | 7.91401 | 8 ft | 2 kts | 105° |
| 2026-04-30 14:52 | 54.18441 | 7.91405 | 8 ft | 0 kts | 82° |
| 2026-04-30 14:52 | 54.18455 | 7.91417 | 8 ft | 9 kts | 33° |
| 2026-04-30 14:52 | 54.18771 | 7.91693 | 28 ft | 89 kts | 26° |
| 2026-04-30 14:53 | 54.19205 | 7.94025 | 699 ft | 147 kts | 113° |
| 2026-04-30 14:53 | 54.18647 | 7.95361 | 724 ft | 122 kts | 157° |
| 2026-04-30 14:54 | 54.17549 | 7.93762 | 450 ft | 123 kts | 284° |
| 2026-04-30 14:54 | 54.18243 | 7.91774 | 48 ft | 91 kts | 332° |
| 2026-04-30 14:55 | 54.18653 | 7.91295 | 5 ft | 0 kts | 142° |
| 2026-04-30 14:55 | 54.17977 | 7.92102 | 194 ft | 118 kts | 144° |
| 2026-04-30 14:56 | 54.16324 | 7.93093 | 1138 ft | 95 kts | 246° |
| 2026-04-30 14:56 | 54.17426 | 7.92081 | 238 ft | 87 kts | 5° |
| 2026-04-30 14:57 | 54.18042 | 7.91963 | 91 ft | 92 kts | 320° |
| 2026-04-30 14:57 | 54.18712 | 7.91163 | 3 ft | 0 kts | 288° |
| 2026-04-30 15:00 | 54.18620 | 7.91324 | 6 ft | 0 kts | 145° |
| 2026-04-30 15:00 | 54.17909 | 7.92147 | 183 ft | 123 kts | 149° |
| 2026-04-30 15:01 | 54.16053 | 7.93738 | 428 ft | 161 kts | 150° |
| 2026-04-30 15:01 | 54.15497 | 7.94397 | 964 ft | 110 kts | 103° |
| 2026-04-30 15:01 | 54.16939 | 7.93559 | 489 ft | 124 kts | 323° |
| 2026-04-30 15:02 | 54.17498 | 7.92672 | 191 ft | 98 kts | 329° |
| 2026-04-30 15:02 | 54.18037 | 7.92025 | 65 ft | 91 kts | 324° |
| 2026-04-30 15:03 | 54.18650 | 7.91296 | 7 ft | 0 kts | 114° |
| 2026-04-30 15:03 | 54.18540 | 7.91420 | 6 ft | 59 kts | 144° |
| 2026-04-30 15:04 | 54.17445 | 7.90709 | 476 ft | 157 kts | 315° |
| 2026-04-30 15:04 | 54.19808 | 7.90231 | 211 ft | 95 kts | 127° |
| 2026-04-30 15:05 | 54.18322 | 7.91680 | 25 ft | 80 kts | 137° |
| 2026-04-30 15:06 | 54.17942 | 7.90732 | 485 ft | 145 kts | 321° |
| 2026-04-30 15:06 | 54.19746 | 7.88849 | 408 ft | 123 kts | 18° |
| 2026-04-30 15:07 | 54.19377 | 7.90394 | 123 ft | 90 kts | 143° |
| 2026-04-30 15:07 | 54.18417 | 7.91562 | 9 ft | 66 kts | 140° |
| 2026-04-30 15:08 | 54.18310 | 7.91689 | 12 ft | 5 kts | 9° |
| 2026-04-30 15:08 | 54.18680 | 7.91581 | 2 ft | 24 kts | 359° |
| 2026-04-30 15:09 | 54.18751 | 7.91622 | 4 ft | 0 kts | 63° |